Time;durP1;ratioP1;P1;durP2;ratioP2;P2;SDS_P1;SDS_P2;PMS_P1;PMS_P2;Temp;Humidity;BMP_temperature;BMP_pressure;BME280_temperature;BME280_humidity;BME280_pressure;Samples;Min_cycle;Max_cycle;Signal;HPM_P1;HPM_P2
2023/07/19 00:01:34;;;;;;;5.88;2.80;;;18.20;99.90;;;;;;5052376;28;20087;-62
2023/07/19 00:03:59;;;;;;;5.40;2.58;;;18.10;99.90;;;;;;5052078;28;20067;-62
2023/07/19 00:06:25;;;;;;;4.28;2.55;;;18.10;99.90;;;;;;5046081;28;20399;-62
2023/07/19 00:08:51;;;;;;;5.57;2.45;;;18.10;99.90;;;;;;5045269;28;20068;-62
2023/07/19 00:11:17;;;;;;;5.60;2.90;;;18.10;99.90;;;;;;5051498;28;20040;-62
2023/07/19 00:13:42;;;;;;;5.15;2.90;;;18.10;99.90;;;;;;5044500;28;20037;-62
2023/07/19 00:16:08;;;;;;;5.70;2.83;;;18.00;99.90;;;;;;5032255;28;20115;-62
2023/07/19 00:18:33;;;;;;;4.13;2.50;;;17.90;99.90;;;;;;5043682;28;20037;-62
2023/07/19 00:20:59;;;;;;;3.20;2.65;;;17.90;99.90;;;;;;5048968;28;20034;-62
2023/07/19 00:23:25;;;;;;;4.45;2.70;;;17.90;99.90;;;;;;5043694;28;20045;-62
2023/07/19 00:25:50;;;;;;;4.70;2.85;;;17.90;99.90;;;;;;5048281;28;20029;-62
2023/07/19 00:28:16;;;;;;;5.35;2.67;;;18.00;99.90;;;;;;5042057;28;20048;-62
2023/07/19 00:30:42;;;;;;;7.93;3.80;;;18.00;99.90;;;;;;5050545;28;20040;-62
2023/07/19 00:33:08;;;;;;;6.68;3.05;;;18.00;99.90;;;;;;5051908;28;20048;-61
2023/07/19 00:35:33;;;;;;;4.57;3.22;;;18.00;99.90;;;;;;5051504;28;20069;-62
2023/07/19 00:37:59;;;;;;;4.88;3.30;;;17.90;99.90;;;;;;5047869;28;20098;-62
2023/07/19 00:40:24;;;;;;;9.02;4.25;;;18.00;99.90;;;;;;5045849;28;20037;-62
2023/07/19 00:42:57;;;;;;;4.90;3.53;;;17.90;99.90;;;;;;5048662;28;20033;-62
2023/07/19 00:45:24;;;;;;;6.97;3.80;;;17.90;99.90;;;;;;5050746;28;20025;-62
2023/07/19 00:47:50;;;;;;;5.45;4.20;;;17.90;99.90;;;;;;5043261;28;20041;-62
2023/07/19 00:50:17;;;;;;;5.07;3.97;;;17.80;99.90;;;;;;5048533;28;20459;-62
2023/07/19 00:52:42;;;;;;;4.90;3.83;;;17.90;99.90;;;;;;5051429;28;20041;-61
2023/07/19 00:55:08;;;;;;;5.75;4.43;;;17.80;99.90;;;;;;5050963;28;20037;-62
2023/07/19 00:57:34;;;;;;;7.18;5.28;;;17.80;99.90;;;;;;5042701;28;20124;-62
2023/07/19 01:00:00;;;;;;;7.22;4.50;;;17.80;99.90;;;;;;5048690;28;20459;-62
2023/07/19 01:02:26;;;;;;;5.78;4.47;;;17.80;99.90;;;;;;5044935;28;20120;-62
2023/07/19 01:04:52;;;;;;;10.30;4.53;;;17.80;99.90;;;;;;5049933;28;20084;-62
2023/07/19 01:07:18;;;;;;;8.02;4.50;;;17.80;99.90;;;;;;5042387;28;20061;-62
2023/07/19 01:09:44;;;;;;;7.53;4.38;;;17.80;99.90;;;;;;5036539;28;20430;-62
2023/07/19 01:12:10;;;;;;;5.10;4.03;;;17.80;99.90;;;;;;5035860;28;20120;-62
2023/07/19 01:14:35;;;;;;;5.55;4.00;;;17.80;99.90;;;;;;5042695;28;20048;-62
2023/07/19 01:17:01;;;;;;;5.43;3.85;;;17.80;99.90;;;;;;5051820;28;20143;-62
2023/07/19 01:19:27;;;;;;;5.55;4.25;;;17.80;99.90;;;;;;5046730;28;20045;-62
2023/07/19 01:21:55;;;;;;;7.57;4.78;;;17.90;99.90;;;;;;5054699;28;20048;-62
2023/07/19 01:24:21;;;;;;;6.55;4.72;;;17.90;99.90;;;;;;5054618;28;20036;-62
2023/07/19 01:26:47;;;;;;;4.93;4.03;;;17.80;99.90;;;;;;5054450;28;20509;-62
2023/07/19 01:29:12;;;;;;;8.90;4.35;;;17.80;99.90;;;;;;5053981;28;20024;-62
2023/07/19 01:31:38;;;;;;;9.75;4.88;;;17.80;99.90;;;;;;5046509;28;20033;-62
2023/07/19 01:34:04;;;;;;;5.57;4.13;;;17.80;99.90;;;;;;5051921;28;20083;-62
2023/07/19 01:36:30;;;;;;;7.55;4.60;;;17.80;99.90;;;;;;5054126;28;20041;-62
2023/07/19 01:38:55;;;;;;;5.82;4.57;;;17.80;99.90;;;;;;5045883;28;20044;-61
2023/07/19 01:41:21;;;;;;;7.97;4.55;;;17.80;99.90;;;;;;5045734;28;20040;-62
2023/07/19 01:43:47;;;;;;;6.57;3.80;;;17.80;99.90;;;;;;5054084;28;20449;-61
2023/07/19 01:46:12;;;;;;;4.65;3.88;;;17.80;99.90;;;;;;5051913;28;20125;-62
2023/07/19 01:48:38;;;;;;;6.20;4.57;;;17.80;99.90;;;;;;5055636;28;20041;-62
2023/07/19 01:51:05;;;;;;;9.68;4.57;;;17.80;99.90;;;;;;5049396;28;20462;-62
2023/07/19 01:53:31;;;;;;;5.53;4.60;;;17.70;99.90;;;;;;5053756;28;20461;-62
2023/07/19 01:55:56;;;;;;;6.05;3.83;;;17.70;99.90;;;;;;5046417;28;20036;-62
2023/07/19 01:58:22;;;;;;;8.80;4.22;;;17.70;99.90;;;;;;5047734;28;20070;-62
2023/07/19 02:01:22;;;;;;;6.68;3.85;;;17.70;99.90;;;;;;5042944;28;20033;-62
2023/07/19 02:03:48;;;;;;;8.18;4.50;;;17.70;99.90;;;;;;5050248;28;20091;-62
2023/07/19 02:06:13;;;;;;;6.07;4.10;;;17.70;99.90;;;;;;5046265;28;20036;-62
2023/07/19 02:08:39;;;;;;;7.55;4.20;;;17.80;99.90;;;;;;5048889;28;20128;-61
2023/07/19 02:11:05;;;;;;;7.93;4.65;;;17.70;99.90;;;;;;5051807;28;20371;-61
2023/07/19 02:13:30;;;;;;;5.22;3.75;;;17.70;99.90;;;;;;5060471;28;20052;-61
2023/07/19 02:15:56;;;;;;;9.95;4.65;;;17.70;99.90;;;;;;5053336;28;20057;-62
2023/07/19 02:18:22;;;;;;;7.60;4.20;;;17.60;99.90;;;;;;5052589;28;20035;-62
2023/07/19 02:20:50;;;;;;;6.72;4.35;;;17.60;99.90;;;;;;5052044;28;20043;-62
2023/07/19 02:23:18;;;;;;;9.40;4.72;;;17.50;99.90;;;;;;5042167;28;20041;-62
2023/07/19 02:25:46;;;;;;;8.35;4.22;;;17.60;99.90;;;;;;5033356;28;20056;-61
2023/07/19 02:28:12;;;;;;;8.52;4.30;;;17.50;99.90;;;;;;5040516;28;20084;-61
2023/07/19 02:30:42;;;;;;;8.30;4.25;;;17.50;99.90;;;;;;5047743;28;20489;-62
2023/07/19 02:33:10;;;;;;;7.55;3.72;;;17.50;99.90;;;;;;5051417;28;20045;-61
2023/07/19 02:35:36;;;;;;;6.72;4.57;;;17.50;99.90;;;;;;5034097;28;20445;-62
2023/07/19 02:38:01;;;;;;;5.63;4.30;;;17.50;99.90;;;;;;5040333;28;20086;-62
2023/07/19 02:40:27;;;;;;;6.10;3.90;;;17.50;99.90;;;;;;5052408;28;20057;-62
2023/07/19 02:42:52;;;;;;;6.78;4.32;;;17.50;99.90;;;;;;5049639;28;20498;-62
2023/07/19 02:45:18;;;;;;;4.68;3.95;;;17.50;99.90;;;;;;5065961;28;20053;-61
2023/07/19 02:47:43;;;;;;;7.13;4.40;;;17.50;99.90;;;;;;5034158;28;20037;-62
2023/07/19 02:50:09;;;;;;;7.28;4.05;;;17.50;99.90;;;;;;5041046;28;20041;-62
2023/07/19 02:52:35;;;;;;;5.45;3.95;;;17.50;99.90;;;;;;5052157;28;20045;-62
2023/07/19 02:55:00;;;;;;;5.90;4.43;;;17.50;99.90;;;;;;5035384;28;20068;-62
2023/07/19 02:57:26;;;;;;;7.30;4.38;;;17.30;99.90;;;;;;5034817;28;20042;-62
2023/07/19 02:59:51;;;;;;;6.70;4.20;;;17.40;99.90;;;;;;5046339;28;20243;-62
2023/07/19 03:02:17;;;;;;;8.75;4.40;;;17.40;99.90;;;;;;5053573;28;20092;-62
2023/07/19 03:04:43;;;;;;;7.53;4.40;;;17.40;99.90;;;;;;5049433;28;20185;-61
2023/07/19 03:07:08;;;;;;;5.82;4.13;;;17.40;99.90;;;;;;5044521;28;20040;-62
2023/07/19 03:09:34;;;;;;;5.70;4.13;;;17.40;99.90;;;;;;5043630;28;20041;-62
2023/07/19 03:12:00;;;;;;;8.10;4.20;;;17.40;99.90;;;;;;5053106;28;20055;-62
2023/07/19 03:14:25;;;;;;;5.20;3.85;;;17.40;99.90;;;;;;5044166;28;20051;-61
2023/07/19 03:16:51;;;;;;;7.55;4.30;;;17.40;99.90;;;;;;5052608;28;20032;-62
2023/07/19 03:19:17;;;;;;;6.05;3.90;;;17.40;99.90;;;;;;5044773;28;20502;-62
2023/07/19 03:21:43;;;;;;;7.55;4.30;;;17.30;99.90;;;;;;5045564;28;20407;-62
2023/07/19 03:24:09;;;;;;;7.00;4.57;;;17.40;99.90;;;;;;5052345;28;20040;-61
2023/07/19 03:26:34;;;;;;;8.73;4.80;;;17.40;99.90;;;;;;5051818;28;20032;-62
2023/07/19 03:29:00;;;;;;;6.47;4.28;;;17.40;99.90;;;;;;5046265;28;20029;-61
2023/07/19 03:31:25;;;;;;;7.00;4.50;;;17.40;99.90;;;;;;5052918;28;20072;-62
2023/07/19 03:33:51;;;;;;;5.43;4.15;;;17.40;99.90;;;;;;5052429;28;20090;-61
2023/07/19 03:36:17;;;;;;;6.63;4.82;;;17.40;99.90;;;;;;5051586;28;20062;-62
2023/07/19 03:38:42;;;;;;;6.28;4.78;;;17.40;99.90;;;;;;5051989;28;20037;-61
2023/07/19 03:41:11;;;;;;;6.63;4.75;;;17.30;99.90;;;;;;5043747;28;20575;-62
2023/07/19 03:43:37;;;;;;;6.05;4.60;;;17.40;99.90;;;;;;5051146;28;20098;-62
2023/07/19 03:46:05;;;;;;;7.50;5.03;;;17.40;99.90;;;;;;5053011;28;20041;-61
2023/07/19 03:48:30;;;;;;;6.78;5.40;;;17.30;99.90;;;;;;5051794;28;20134;-61
2023/07/19 03:51:00;;;;;;;12.00;5.90;;;17.40;99.90;;;;;;5044463;28;20037;-61
2023/07/19 03:53:26;;;;;;;9.85;6.57;;;17.40;99.90;;;;;;5057523;28;20048;-62
2023/07/19 03:55:56;;;;;;;9.88;6.35;;;17.30;99.90;;;;;;5072845;28;20043;-62
2023/07/19 03:58:24;;;;;;;8.10;7.30;;;17.30;99.90;;;;;;5070406;28;20442;-61
2023/07/19 04:00:55;;;;;;;10.07;7.20;;;17.30;99.90;;;;;;5034350;28;20627;-61
2023/07/19 04:03:41;;;;;;;;;;;17.30;99.90;;;;;;5042703;28;20399;-61
2023/07/19 04:06:07;;;;;;;9.05;7.93;;;17.20;99.90;;;;;;5049744;28;19965;-61
2023/07/19 04:08:33;;;;;;;10.60;7.28;;;17.10;99.90;;;;;;5051272;28;20037;-61
2023/07/19 04:10:59;;;;;;;12.68;8.27;;;17.20;99.90;;;;;;5044025;28;20036;-61
2023/07/19 04:13:28;;;;;;;9.82;7.97;;;17.20;99.90;;;;;;5044920;28;20041;-61
2023/07/19 04:15:54;;;;;;;13.43;8.35;;;17.20;99.90;;;;;;5059271;28;20090;-61
2023/07/19 04:18:20;;;;;;;12.27;8.40;;;17.10;99.90;;;;;;5048857;28;20041;-62
2023/07/19 04:20:45;;;;;;;14.05;8.38;;;17.10;99.90;;;;;;5050233;28;20041;-62
2023/07/19 04:23:11;;;;;;;11.15;7.68;;;17.10;99.90;;;;;;5032669;28;20120;-61
2023/07/19 04:25:37;;;;;;;11.88;7.80;;;17.10;99.90;;;;;;5045767;28;20036;-62
2023/07/19 04:28:03;;;;;;;12.32;8.55;;;17.10;99.90;;;;;;5052495;28;20116;-61
2023/07/19 04:30:29;;;;;;;9.73;7.70;;;17.10;99.90;;;;;;5050993;28;20045;-61
2023/07/19 04:32:55;;;;;;;11.93;8.25;;;17.20;99.90;;;;;;5051852;28;20372;-61
2023/07/19 04:35:23;;;;;;;14.02;8.82;;;17.20;99.90;;;;;;5051575;28;20052;-61
2023/07/19 04:37:50;;;;;;;13.95;8.45;;;17.10;99.90;;;;;;5052042;28;20041;-61
2023/07/19 04:40:16;;;;;;;11.80;8.63;;;17.10;99.90;;;;;;5051915;28;20035;-61
2023/07/19 04:42:42;;;;;;;13.57;8.98;;;17.10;99.90;;;;;;5051489;28;20506;-61
2023/07/19 04:45:08;;;;;;;11.07;8.32;;;17.10;99.90;;;;;;5050904;28;20690;-61
2023/07/19 04:47:34;;;;;;;13.02;8.73;;;17.10;99.90;;;;;;5045553;28;20073;-61
2023/07/19 04:50:00;;;;;;;11.70;8.35;;;17.10;99.90;;;;;;5051367;28;20045;-61
2023/07/19 04:52:26;;;;;;;10.60;8.68;;;17.00;99.90;;;;;;5050442;28;20044;-61
2023/07/19 04:54:51;;;;;;;11.60;8.60;;;17.10;99.90;;;;;;5050655;28;20507;-61
2023/07/19 04:57:17;;;;;;;13.13;9.00;;;17.10;99.90;;;;;;5051525;28;20037;-61
2023/07/19 04:59:43;;;;;;;14.50;9.07;;;17.10;99.90;;;;;;5050035;28;20044;-61
2023/07/19 05:02:08;;;;;;;10.65;8.13;;;17.10;99.90;;;;;;5048614;28;20038;-61
2023/07/19 05:04:34;;;;;;;10.80;9.15;;;17.20;99.90;;;;;;5041591;28;20033;-61
2023/07/19 05:07:00;;;;;;;12.80;8.30;;;17.20;99.90;;;;;;5047554;28;20037;-61
2023/07/19 05:09:25;;;;;;;10.25;7.38;;;17.20;99.90;;;;;;5058512;22;20123;-63
2023/07/19 05:11:51;;;;;;;10.32;7.13;;;17.20;99.90;;;;;;5047870;28;20037;-65
2023/07/19 05:14:17;;;;;;;12.50;7.63;;;17.20;99.90;;;;;;5040282;28;20034;-63
2023/07/19 05:16:43;;;;;;;12.32;7.25;;;17.30;99.90;;;;;;5025287;28;20129;-63
2023/07/19 05:19:08;;;;;;;11.38;7.18;;;17.20;99.90;;;;;;5016985;28;20595;-63
2023/07/19 05:21:34;;;;;;;8.60;6.35;;;17.30;99.90;;;;;;5011434;28;20037;-64
2023/07/19 05:24:00;;;;;;;8.73;5.70;;;17.20;99.90;;;;;;5021465;28;20034;-64
2023/07/19 05:26:26;;;;;;;8.93;5.93;;;17.30;99.90;;;;;;5009519;28;20038;-64
2023/07/19 05:28:51;;;;;;;7.55;5.10;;;17.30;99.90;;;;;;5011515;28;20423;-64
2023/07/19 05:31:18;;;;;;;7.32;5.38;;;17.30;99.90;;;;;;5011761;28;20042;-64
2023/07/19 05:33:43;;;;;;;8.32;4.82;;;17.30;99.90;;;;;;5010251;28;20058;-64
2023/07/19 05:36:09;;;;;;;9.27;4.97;;;17.30;99.90;;;;;;5011547;28;20648;-64
2023/07/19 05:38:35;;;;;;;5.07;4.47;;;17.30;99.90;;;;;;5008762;28;20045;-64
2023/07/19 05:41:01;;;;;;;5.72;4.30;;;17.40;99.90;;;;;;5011366;28;20100;-64
2023/07/19 05:43:27;;;;;;;7.38;4.43;;;17.40;99.90;;;;;;5007690;28;20038;-64
2023/07/19 05:45:53;;;;;;;6.22;4.03;;;17.40;99.90;;;;;;5008177;28;20096;-65
2023/07/19 05:48:18;;;;;;;9.70;4.47;;;17.30;99.90;;;;;;5011302;28;20076;-65
2023/07/19 05:50:44;;;;;;;5.80;3.78;;;17.40;99.90;;;;;;5009253;28;20045;-64
2023/07/19 05:53:10;;;;;;;4.20;3.20;;;17.30;99.90;;;;;;5011496;28;20512;-64
2023/07/19 05:55:38;;;;;;;5.65;4.05;;;17.30;99.90;;;;;;5010252;28;20052;-64
2023/07/19 05:58:03;;;;;;;6.05;3.70;;;17.20;99.90;;;;;;5012194;28;20042;-65
2023/07/19 06:00:29;;;;;;;5.45;3.50;;;17.20;99.90;;;;;;5021784;28;20053;-65
2023/07/19 06:02:55;;;;;;;4.68;3.38;;;17.20;99.90;;;;;;5014557;28;20347;-65
2023/07/19 06:05:23;;;;;;;6.40;3.22;;;17.20;99.90;;;;;;5013867;28;20495;-65
2023/07/19 06:07:48;;;;;;;5.25;2.97;;;17.30;99.90;;;;;;5013710;28;20048;-64
2023/07/19 06:10:15;;;;;;;3.55;3.00;;;17.20;99.90;;;;;;5010915;28;20217;-65
2023/07/19 06:12:43;;;;;;;4.38;2.65;;;17.20;99.90;;;;;;5009863;28;20526;-64
2023/07/19 06:15:09;;;;;;;6.43;2.55;;;17.30;99.90;;;;;;5014364;28;20034;-64
2023/07/19 06:17:35;;;;;;;4.00;2.40;;;17.30;99.90;;;;;;5012537;28;20403;-65
2023/07/19 06:20:01;;;;;;;5.85;2.67;;;17.30;99.90;;;;;;5014519;28;20041;-67
2023/07/19 06:22:27;;;;;;;4.35;2.53;;;17.30;99.90;;;;;;5014656;28;20048;-66
2023/07/19 06:24:53;;;;;;;3.83;2.70;;;17.50;99.90;;;;;;5014458;28;20030;-67
2023/07/19 06:27:18;;;;;;;4.38;2.45;;;17.50;99.90;;;;;;5010922;28;20092;-65
2023/07/19 06:29:44;;;;;;;5.45;2.97;;;17.50;99.90;;;;;;5011488;28;20106;-65
2023/07/19 06:32:10;;;;;;;4.57;2.80;;;17.50;99.90;;;;;;5022844;28;20563;-65
2023/07/19 06:34:36;;;;;;;7.07;2.67;;;17.50;99.90;;;;;;5017239;28;20403;-65
2023/07/19 06:37:01;;;;;;;3.88;2.45;;;17.50;99.90;;;;;;5014638;28;20063;-66
2023/07/19 06:39:29;;;;;;;4.95;2.70;;;17.50;99.90;;;;;;5010633;28;20073;-66
2023/07/19 06:41:55;;;;;;;5.07;2.92;;;17.50;99.90;;;;;;5012755;28;20128;-66
2023/07/19 06:44:20;;;;;;;6.38;3.20;;;17.60;99.90;;;;;;5009969;28;20121;-65
2023/07/19 06:46:46;;;;;;;6.18;2.67;;;17.60;99.90;;;;;;5017492;28;20041;-66
2023/07/19 06:49:12;;;;;;;4.70;2.78;;;17.60;99.90;;;;;;5013657;28;20025;-70
2023/07/19 06:51:37;;;;;;;4.00;3.10;;;17.70;99.90;;;;;;5014172;28;20033;-69
2023/07/19 06:54:03;;;;;;;4.93;2.80;;;17.70;99.90;;;;;;5011104;28;20796;-69
2023/07/19 06:56:29;;;;;;;5.40;3.10;;;17.70;99.90;;;;;;5007009;28;20503;-68
2023/07/19 06:58:54;;;;;;;4.90;2.60;;;17.80;99.90;;;;;;5015955;28;20403;-68
2023/07/19 07:01:20;;;;;;;5.70;2.88;;;17.70;99.90;;;;;;5016963;28;20037;-69
2023/07/19 07:03:45;;;;;;;5.63;2.55;;;17.90;99.90;;;;;;5012909;28;20037;-68
2023/07/19 07:06:11;;;;;;;5.20;2.35;;;17.90;99.90;;;;;;5009899;28;20069;-68
2023/07/19 07:08:37;;;;;;;4.43;2.80;;;17.90;99.90;;;;;;5009658;28;20395;-69
2023/07/19 07:11:04;;;;;;;5.95;2.63;;;18.00;99.90;;;;;;5015018;28;20132;-69
2023/07/19 07:13:30;;;;;;;4.18;2.20;;;18.00;99.90;;;;;;5024753;28;20049;-68
2023/07/19 07:15:57;;;;;;;4.50;1.95;;;18.00;99.90;;;;;;5025628;28;20061;-68
2023/07/19 07:18:23;;;;;;;4.55;2.00;;;18.10;99.90;;;;;;5018147;28;20538;-68
2023/07/19 07:20:51;;;;;;;5.60;2.33;;;18.10;99.90;;;;;;5009627;28;20037;-69
2023/07/19 07:23:17;;;;;;;2.50;2.10;;;18.20;99.90;;;;;;5014764;28;20505;-68
2023/07/19 07:25:43;;;;;;;4.28;2.17;;;18.20;99.90;;;;;;5018957;28;20033;-68
2023/07/19 07:28:09;;;;;;;7.05;1.95;;;18.30;99.90;;;;;;5020503;28;20463;-68
2023/07/19 07:30:37;;;;;;;4.80;2.10;;;18.30;99.90;;;;;;5020899;28;20404;-68
2023/07/19 07:33:06;;;;;;;4.97;2.15;;;18.40;99.90;;;;;;5013167;28;20034;-68
2023/07/19 07:35:32;;;;;;;3.70;2.00;;;18.30;99.90;;;;;;5012088;28;20042;-68
2023/07/19 07:37:58;;;;;;;5.80;1.92;;;18.30;99.90;;;;;;5020312;28;20033;-68
2023/07/19 07:40:23;;;;;;;4.30;2.30;;;18.40;99.90;;;;;;5012602;28;20050;-68
2023/07/19 07:42:49;;;;;;;4.22;2.28;;;18.50;99.90;;;;;;5020688;28;20033;-68
2023/07/19 07:45:15;;;;;;;4.05;2.17;;;18.50;99.90;;;;;;5012471;28;20120;-68
2023/07/19 07:47:40;;;;;;;3.92;1.92;;;18.50;99.90;;;;;;5019841;28;20148;-68
2023/07/19 07:50:09;;;;;;;4.45;2.03;;;18.50;99.90;;;;;;5021223;28;20057;-68
2023/07/19 07:52:38;;;;;;;4.20;2.15;;;18.60;99.90;;;;;;5012069;28;20133;-68
2023/07/19 07:55:05;;;;;;;5.63;2.25;;;18.60;99.90;;;;;;5011827;28;20045;-68
2023/07/19 07:57:33;;;;;;;2.85;1.80;;;18.60;99.90;;;;;;5019401;28;20662;-68
2023/07/19 08:00:03;;;;;;;4.32;1.73;;;18.60;99.90;;;;;;5020630;28;20056;-68
2023/07/19 08:02:28;;;;;;;4.47;2.28;;;18.60;99.90;;;;;;5012242;28;20046;-68
2023/07/19 08:04:54;;;;;;;4.63;2.00;;;18.60;99.90;;;;;;5021402;28;20145;-68
2023/07/19 08:07:20;;;;;;;6.53;2.33;;;18.60;99.90;;;;;;5009689;28;20435;-68
2023/07/19 08:09:45;;;;;;;6.82;2.28;;;18.60;99.90;;;;;;5005186;28;20109;-68
2023/07/19 08:12:13;;;;;;;4.35;2.42;;;18.60;99.90;;;;;;5008410;28;20081;-69
2023/07/19 08:14:40;;;;;;;5.55;2.47;;;18.70;99.90;;;;;;5011046;28;20041;-68
2023/07/19 08:17:05;;;;;;;6.72;2.42;;;18.70;99.90;;;;;;5022386;28;20411;-68
2023/07/19 08:19:31;;;;;;;6.55;2.50;;;18.70;99.90;;;;;;5021714;28;20041;-69
2023/07/19 08:22:02;;;;;;;5.40;2.58;;;18.80;99.90;;;;;;5030028;28;20040;-68
2023/07/19 08:24:28;;;;;;;4.65;2.25;;;18.90;99.90;;;;;;5006514;28;20037;-69
2023/07/19 08:26:54;;;;;;;4.70;2.15;;;19.00;99.90;;;;;;5008988;28;20159;-69
2023/07/19 08:29:19;;;;;;;5.28;2.40;;;19.10;99.90;;;;;;5021705;28;20055;-69
2023/07/19 08:31:45;;;;;;;5.10;2.67;;;19.10;99.90;;;;;;5024093;28;20042;-69
2023/07/19 08:34:10;;;;;;;4.70;2.42;;;19.20;99.90;;;;;;5017111;28;20119;-69
2023/07/19 08:36:36;;;;;;;5.30;2.33;;;19.20;99.90;;;;;;5021478;28;20449;-68
2023/07/19 08:39:02;;;;;;;3.20;2.28;;;19.30;99.90;;;;;;5014207;28;20411;-69
2023/07/19 08:41:31;;;;;;;5.68;2.30;;;19.40;99.90;;;;;;5010935;28;20050;-68
2023/07/19 08:43:57;;;;;;;5.18;2.40;;;19.50;99.90;;;;;;5011034;28;20121;-69
2023/07/19 08:46:23;;;;;;;6.80;2.47;;;19.50;99.90;;;;;;5011946;28;20034;-69
2023/07/19 08:48:50;;;;;;;4.28;2.13;;;19.60;99.90;;;;;;5011349;28;20042;-68
2023/07/19 08:51:17;;;;;;;3.72;2.20;;;19.60;99.90;;;;;;5009957;28;20124;-68
2023/07/19 08:53:43;;;;;;;3.35;2.10;;;19.70;99.90;;;;;;5013437;28;20132;-68
2023/07/19 08:56:14;;;;;;;4.40;2.45;;;19.70;99.90;;;;;;5011606;28;20554;-68
2023/07/19 08:58:40;;;;;;;3.25;2.10;;;19.60;99.90;;;;;;5009904;28;20080;-68
2023/07/19 09:01:06;;;;;;;4.80;2.08;;;19.60;99.90;;;;;;5010332;28;20048;-68
2023/07/19 09:03:33;;;;;;;3.55;1.90;;;19.60;99.90;;;;;;5010823;28;20404;-68
2023/07/19 09:05:58;;;;;;;6.30;2.10;;;19.60;99.90;;;;;;5011015;28;20042;-68
2023/07/19 09:08:38;;;;;;;5.03;2.00;;;19.70;99.90;;;;;;5010436;28;20100;-67
2023/07/19 09:11:04;;;;;;;2.42;1.67;;;19.70;99.90;;;;;;5013436;28;20046;-67
2023/07/19 09:13:35;;;;;;;5.28;1.90;;;19.80;99.90;;;;;;5011550;28;20038;-67
2023/07/19 09:16:03;;;;;;;4.60;2.10;;;19.90;99.90;;;;;;5009469;28;20496;-67
2023/07/19 09:18:36;;;;;;;6.13;2.20;;;20.10;99.90;;;;;;5010489;28;20121;-67
2023/07/19 09:21:04;;;;;;;5.45;1.92;;;20.10;99.90;;;;;;5012053;28;20077;-67
2023/07/19 09:23:35;;;;;;;3.83;1.98;;;20.10;99.90;;;;;;5017418;28;20034;-67
2023/07/19 09:26:03;;;;;;;5.25;2.33;;;20.10;99.90;;;;;;5011504;28;20481;-67
2023/07/19 09:28:29;;;;;;;5.15;1.90;;;20.10;99.90;;;;;;5009643;28;20043;-67
2023/07/19 09:30:58;;;;;;;6.50;2.22;;;20.00;99.90;;;;;;5011806;28;20042;-67
2023/07/19 09:33:27;;;;;;;6.13;1.80;;;20.00;99.90;;;;;;5015609;28;20045;-67
2023/07/19 09:35:56;;;;;;;4.75;2.03;;;19.90;99.90;;;;;;5010125;28;20038;-67
2023/07/19 09:38:23;;;;;;;3.15;1.73;;;19.80;99.90;;;;;;5005787;28;20136;-67
2023/07/19 09:40:53;;;;;;;3.67;1.60;;;19.80;99.90;;;;;;5009533;28;20045;-67
2023/07/19 09:43:20;;;;;;;4.53;2.23;;;19.80;99.90;;;;;;5027463;28;20079;-67
2023/07/19 09:45:47;;;;;;;4.90;1.88;;;19.90;99.90;;;;;;5019904;28;20033;-68
2023/07/19 09:48:15;;;;;;;3.83;1.60;;;19.80;99.90;;;;;;5011853;28;20034;-67
2023/07/19 09:50:41;;;;;;;5.15;1.83;;;19.90;99.90;;;;;;5013747;28;20040;-67
2023/07/19 09:53:11;;;;;;;3.17;2.10;;;19.90;99.90;;;;;;5012821;28;20038;-67
2023/07/19 09:55:37;;;;;;;3.78;1.73;;;19.80;99.90;;;;;;5012264;28;20037;-67
2023/07/19 09:58:07;;;;;;;3.28;1.50;;;19.80;99.90;;;;;;5009372;28;20161;-67
2023/07/19 10:00:33;;;;;;;6.53;1.70;;;19.90;99.90;;;;;;5017079;28;20052;-67
2023/07/19 10:02:59;;;;;;;4.20;1.83;;;19.80;99.90;;;;;;5015624;28;20045;-67
2023/07/19 10:05:28;;;;;;;3.88;1.92;;;19.80;99.90;;;;;;5012414;28;20111;-67
2023/07/19 10:11:00;;;;;;;4.82;1.88;;;19.90;99.90;;;;;;5020170;23;20080;-67
2023/07/19 10:13:51;;;;;;;3.92;2.00;;;20.00;99.90;;;;;;5013748;28;20128;-67
2023/07/19 10:16:24;;;;;;;5.53;2.30;;;20.10;99.90;;;;;;4995329;28;20586;-67
2023/07/19 10:19:11;;;;;;;3.30;1.83;;;20.10;99.90;;;;;;5009187;28;20045;-66
2023/07/19 10:21:37;;;;;;;5.45;1.95;;;20.00;99.90;;;;;;5008741;28;20063;-66
2023/07/19 10:24:09;;;;;;;4.57;1.58;;;20.00;99.90;;;;;;5005302;28;20496;-66
2023/07/19 10:26:36;;;;;;;3.97;1.85;;;20.00;99.90;;;;;;5014017;28;20030;-66
2023/07/19 10:29:03;;;;;;;5.75;1.90;;;19.90;99.90;;;;;;5013718;28;20041;-66
2023/07/19 10:31:29;;;;;;;3.03;1.45;;;20.00;99.90;;;;;;5012352;28;20073;-66
2023/07/19 10:33:55;;;;;;;4.75;1.58;;;20.10;99.90;;;;;;5013987;28;20065;-66
2023/07/19 10:36:21;;;;;;;3.78;1.58;;;20.30;99.90;;;;;;5014710;28;20096;-67
2023/07/19 10:38:47;;;;;;;4.50;1.63;;;20.50;99.90;;;;;;5014360;28;20046;-67
2023/07/19 10:41:15;;;;;;;4.38;1.85;;;20.70;99.90;;;;;;5011580;28;20034;-66
2023/07/19 10:43:41;;;;;;;3.72;1.60;;;20.80;99.90;;;;;;5012787;28;20038;-66
2023/07/19 10:46:07;;;;;;;1.55;1.08;;;21.00;99.90;;;;;;5012639;28;20120;-66
2023/07/19 10:48:38;;;;;;;2.72;1.10;;;21.10;99.90;;;;;;5013531;28;20038;-66
2023/07/19 10:51:05;;;;;;;1.63;1.02;;;21.20;99.90;;;;;;5011870;28;20045;-66
2023/07/19 10:53:41;;;;;;;2.83;1.05;;;21.30;99.90;;;;;;5012098;28;20527;-66
2023/07/19 10:56:07;;;;;;;2.33;0.90;;;21.40;99.90;;;;;;5005582;28;20548;-66
2023/07/19 10:58:32;;;;;;;1.55;0.93;;;21.40;99.90;;;;;;5012913;28;20042;-66
2023/07/19 11:00:58;;;;;;;2.90;0.80;;;21.50;99.90;;;;;;5013244;28;20083;-66
2023/07/19 11:03:26;;;;;;;2.55;0.82;;;21.50;99.90;;;;;;5005552;28;20034;-66
2023/07/19 11:05:53;;;;;;;3.83;1.00;;;21.50;99.90;;;;;;5005020;28;20038;-66
2023/07/19 11:08:23;;;;;;;4.55;1.30;;;21.60;99.90;;;;;;4995886;28;20043;-66
2023/07/19 11:10:49;;;;;;;0.90;0.70;;;21.60;99.90;;;;;;5040845;23;20057;-61
2023/07/19 11:13:16;;;;;;;2.25;0.98;;;21.60;99.90;;;;;;5029231;28;20291;-60
2023/07/19 11:16:03;;;;;;;2.05;0.90;;;21.60;99.90;;;;;;5033234;28;20511;-61
2023/07/19 11:18:38;;;;;;;2.33;1.00;;;21.50;99.90;;;;;;5030176;28;20073;-61
2023/07/19 11:21:04;;;;;;;1.23;1.00;;;21.20;99.90;;;;;;5013715;28;20037;-61
2023/07/19 11:23:31;;;;;;;3.72;1.55;;;21.00;99.90;;;;;;5011822;28;20129;-61
2023/07/19 11:26:08;;;;;;;2.20;1.40;;;20.80;99.90;;;;;;5012862;28;20045;-61
2023/07/19 11:28:53;;;;;;;2.85;1.40;;;20.60;99.90;;;;;;5013076;28;20038;-61
2023/07/19 11:31:41;;;;;;;3.78;1.40;;;20.50;99.90;;;;;;5010540;28;20052;-61
2023/07/19 11:34:11;;;;;;;3.75;1.52;;;20.50;99.90;;;;;;5010753;28;20034;-61
2023/07/19 11:36:41;;;;;;;3.25;1.38;;;20.50;99.90;;;;;;5004963;28;20037;-61
2023/07/19 11:39:17;;;;;;;1.52;0.88;;;20.60;99.90;;;;;;5011547;28;20512;-61
2023/07/19 11:41:48;;;;;;;3.03;1.30;;;20.70;99.90;;;;;;5012272;28;20128;-60
2023/07/19 11:44:14;;;;;;;1.92;0.90;;;20.70;99.90;;;;;;5007853;28;20038;-61
2023/07/19 11:46:40;;;;;;;3.75;1.42;;;20.70;99.90;;;;;;5012542;28;20041;-61
2023/07/19 11:49:09;;;;;;;2.47;1.33;;;20.70;99.90;;;;;;5012175;28;20403;-60
2023/07/19 11:51:35;;;;;;;2.85;1.20;;;20.80;99.90;;;;;;5011247;28;20109;-61
2023/07/19 11:54:00;;;;;;;5.57;1.45;;;20.80;99.90;;;;;;5010164;28;20175;-61
2023/07/19 11:56:26;;;;;;;2.42;1.10;;;20.80;99.90;;;;;;5009699;28;20589;-61
2023/07/19 11:58:52;;;;;;;1.48;1.00;;;20.80;99.90;;;;;;5016867;28;20601;-61
2023/07/19 12:01:19;;;;;;;2.70;1.05;;;20.80;99.90;;;;;;5008110;28;20077;-61
2023/07/19 12:03:46;;;;;;;1.77;1.00;;;20.80;99.90;;;;;;5009841;28;20038;-61
2023/07/19 12:06:14;;;;;;;3.28;1.00;;;20.80;99.90;;;;;;5008677;28;20038;-60
2023/07/19 12:08:41;;;;;;;4.55;1.00;;;20.90;99.90;;;;;;5010642;28;20049;-61
2023/07/19 12:11:08;;;;;;;2.67;1.00;;;21.10;99.90;;;;;;5004330;28;20042;-61
2023/07/19 12:13:35;;;;;;;2.53;1.30;;;21.20;99.90;;;;;;5010941;28;20060;-61
2023/07/19 12:16:01;;;;;;;2.63;1.20;;;21.30;99.90;;;;;;5007994;28;20557;-61
2023/07/19 12:18:28;;;;;;;4.03;1.30;;;21.30;99.90;;;;;;5012164;28;20041;-62
2023/07/19 12:20:54;;;;;;;4.47;1.48;;;21.40;99.90;;;;;;5007433;28;20042;-61
2023/07/19 12:23:19;;;;;;;4.13;1.83;;;21.30;99.90;;;;;;5011081;28;20036;-61
2023/07/19 12:25:45;;;;;;;3.80;1.90;;;21.20;99.90;;;;;;5003839;28;20145;-61
2023/07/19 12:28:11;;;;;;;4.20;1.83;;;21.20;99.90;;;;;;5008822;28;20392;-62
2023/07/19 12:30:39;;;;;;;4.10;2.25;;;21.10;99.90;;;;;;4998590;28;20046;-61
2023/07/19 12:33:04;;;;;;;4.55;2.28;;;21.10;99.90;;;;;;5002306;28;20050;-61
2023/07/19 12:35:30;;;;;;;3.83;2.20;;;21.00;99.90;;;;;;5000604;28;20037;-61
2023/07/19 12:37:56;;;;;;;4.68;1.92;;;21.00;99.90;;;;;;5004749;28;20034;-61
2023/07/19 12:40:21;;;;;;;5.60;2.70;;;20.90;99.90;;;;;;5008294;28;20480;-61
2023/07/19 12:42:48;;;;;;;6.32;2.00;;;20.80;99.90;;;;;;5010414;28;20038;-61
2023/07/19 12:45:15;;;;;;;4.70;2.40;;;20.80;99.90;;;;;;5010744;28;20037;-61
2023/07/19 12:47:40;;;;;;;5.80;2.78;;;20.80;99.90;;;;;;5007092;28;20066;-61